Time;durP1;ratioP1;P1;durP2;ratioP2;P2;SDS_P1;SDS_P2;PMS_P1;PMS_P2;Temp;Humidity;BMP_temperature;BMP_pressure;BME280_temperature;BME280_humidity;BME280_pressure;Samples;Min_cycle;Max_cycle;Signal;HPM_P1;HPM_P2
2024/02/27 00:01:39;;;;;;;10.68;6.50;;;7.00;99.90;;;;;;5041335;28;20078;-58
2024/02/27 00:04:05;;;;;;;13.85;6.97;;;7.00;99.90;;;;;;5044945;28;20034;-58
2024/02/27 00:06:31;;;;;;;14.77;7.07;;;7.00;99.90;;;;;;5041310;28;20032;-59
2024/02/27 00:08:57;;;;;;;14.80;6.65;;;7.00;99.90;;;;;;5042696;28;20037;-59
2024/02/27 00:11:23;;;;;;;14.40;7.38;;;6.90;99.90;;;;;;5044176;28;20021;-58
2024/02/27 00:13:49;;;;;;;13.23;7.63;;;6.90;99.90;;;;;;5042564;28;20098;-59
2024/02/27 00:16:18;;;;;;;15.23;8.68;;;6.90;99.90;;;;;;5038582;28;20029;-58
2024/02/27 00:18:44;;;;;;;15.40;8.57;;;6.80;99.90;;;;;;5042607;28;20108;-58
2024/02/27 00:21:10;;;;;;;15.73;8.30;;;6.70;99.90;;;;;;5042671;28;20533;-58
2024/02/27 00:23:36;;;;;;;14.60;8.93;;;6.70;99.90;;;;;;5038714;28;20030;-58
2024/02/27 00:26:02;;;;;;;16.00;9.52;;;6.70;99.90;;;;;;5040956;28;20090;-58
2024/02/27 00:28:27;;;;;;;19.42;9.45;;;6.70;99.90;;;;;;5022385;28;20044;-58
2024/02/27 00:30:53;;;;;;;18.83;9.95;;;6.60;99.90;;;;;;5040629;28;20470;-57
2024/02/27 00:33:18;;;;;;;17.60;9.50;;;6.60;99.90;;;;;;5040549;28;20455;-59
2024/02/27 00:35:44;;;;;;;19.40;9.95;;;6.60;99.90;;;;;;5042772;28;20582;-57
2024/02/27 00:38:10;;;;;;;14.98;9.18;;;6.60;99.90;;;;;;5045494;28;20079;-57
2024/02/27 00:40:36;;;;;;;18.15;9.90;;;6.60;99.90;;;;;;5042985;28;20028;-59
2024/02/27 00:43:02;;;;;;;18.83;10.38;;;6.50;99.90;;;;;;5039211;28;20017;-58
2024/02/27 00:45:28;;;;;;;17.42;9.63;;;6.60;99.90;;;;;;5042253;28;20029;-57
2024/02/27 00:47:53;;;;;;;17.98;9.43;;;6.50;99.90;;;;;;5041094;28;20179;-59
2024/02/27 00:50:19;;;;;;;14.68;9.63;;;6.50;99.90;;;;;;5041400;28;20033;-59
2024/02/27 00:52:44;;;;;;;19.40;10.25;;;6.60;99.90;;;;;;5041148;28;20021;-58
2024/02/27 00:55:10;;;;;;;16.58;9.98;;;6.60;99.90;;;;;;5039576;28;20022;-59
2024/02/27 00:57:36;;;;;;;19.08;10.50;;;6.50;99.90;;;;;;5039671;28;20079;-58
2024/02/27 01:00:08;;;;;;;19.67;10.70;;;6.60;99.90;;;;;;5040404;28;20443;-58
2024/02/27 01:02:35;;;;;;;16.23;9.88;;;6.60;99.90;;;;;;5042360;28;20036;-57
2024/02/27 01:05:01;;;;;;;19.73;10.95;;;6.50;99.90;;;;;;5040142;28;20021;-59
2024/02/27 01:07:27;;;;;;;17.15;10.48;;;6.50;99.90;;;;;;5040978;28;20892;-58
2024/02/27 01:09:53;;;;;;;15.55;10.68;;;6.50;99.90;;;;;;5041433;28;20033;-59
2024/02/27 01:12:19;;;;;;;17.90;11.50;;;6.50;99.90;;;;;;5043390;28;20041;-57
2024/02/27 01:14:45;;;;;;;19.48;10.82;;;6.60;99.90;;;;;;5044458;28;20092;-58
2024/02/27 01:17:10;;;;;;;17.27;10.93;;;6.60;99.90;;;;;;5043426;28;20029;-59
2024/02/27 01:19:36;;;;;;;22.38;11.05;;;6.60;99.90;;;;;;5041841;28;20025;-59
2024/02/27 01:22:01;;;;;;;16.35;9.93;;;6.50;99.90;;;;;;5041693;28;20422;-59
2024/02/27 01:24:27;;;;;;;15.73;10.63;;;6.60;99.90;;;;;;5037857;28;20558;-59
2024/02/27 01:26:52;;;;;;;20.58;10.50;;;6.50;99.90;;;;;;5043488;28;20032;-55
2024/02/27 01:29:18;;;;;;;20.17;11.85;;;6.60;99.90;;;;;;5044154;28;20242;-57
2024/02/27 01:31:44;;;;;;;15.38;9.88;;;6.60;99.90;;;;;;5019805;28;20052;-58
2024/02/27 01:34:11;;;;;;;18.52;10.07;;;6.60;99.90;;;;;;5033891;28;20082;-58
2024/02/27 01:36:38;;;;;;;18.65;10.68;;;6.60;99.90;;;;;;5044871;28;20049;-58
2024/02/27 01:39:08;;;;;;;19.10;10.75;;;6.60;99.90;;;;;;5045014;28;20098;-58
2024/02/27 01:41:34;;;;;;;16.33;10.45;;;6.60;99.90;;;;;;5044266;28;20462;-63
2024/02/27 01:44:00;;;;;;;16.02;10.35;;;6.60;99.90;;;;;;5043910;28;20071;-54
2024/02/27 01:46:28;;;;;;;20.55;10.75;;;6.60;99.90;;;;;;5045613;28;20033;-55
2024/02/27 01:48:55;;;;;;;16.65;9.73;;;6.70;99.90;;;;;;5046608;28;20031;-56
2024/02/27 01:51:21;;;;;;;16.63;9.68;;;6.70;99.90;;;;;;5042773;28;20032;-57
2024/02/27 01:53:50;;;;;;;16.60;9.20;;;6.60;99.90;;;;;;5042182;28;20082;-57
2024/02/27 01:56:18;;;;;;;13.57;8.82;;;6.60;99.90;;;;;;5042168;28;20043;-55
2024/02/27 01:58:44;;;;;;;14.95;8.80;;;6.60;99.90;;;;;;5045212;28;20048;-56
2024/02/27 02:01:13;;;;;;;13.75;8.63;;;6.60;99.90;;;;;;5040742;28;20033;-57
2024/02/27 02:03:40;;;;;;;13.88;8.43;;;6.60;99.90;;;;;;5044068;28;20430;-55
2024/02/27 02:06:09;;;;;;;13.23;8.45;;;6.60;99.90;;;;;;5038885;28;20063;-58
2024/02/27 02:08:35;;;;;;;12.38;8.13;;;6.60;99.90;;;;;;5038224;28;20095;-57
2024/02/27 02:11:01;;;;;;;11.68;8.15;;;6.60;99.90;;;;;;5035733;28;20036;-58
2024/02/27 02:13:27;;;;;;;13.13;7.70;;;6.60;99.90;;;;;;5040444;28;20621;-55
2024/02/27 02:15:53;;;;;;;11.02;6.82;;;6.70;99.90;;;;;;5038538;28;20064;-56
2024/02/27 02:18:18;;;;;;;14.77;7.72;;;6.70;99.90;;;;;;5040230;28;20145;-56
2024/02/27 02:20:44;;;;;;;11.90;7.85;;;6.70;99.90;;;;;;5045135;28;20028;-54
2024/02/27 02:23:09;;;;;;;11.82;7.75;;;6.70;99.90;;;;;;5039818;28;20032;-58
2024/02/27 02:25:37;;;;;;;13.70;8.05;;;6.70;99.90;;;;;;5040556;28;20040;-56
2024/02/27 02:28:04;;;;;;;11.82;7.10;;;6.70;99.90;;;;;;5022003;28;20033;-54
2024/02/27 02:30:29;;;;;;;16.38;8.07;;;6.70;99.90;;;;;;5008948;28;20036;-57
2024/02/27 02:32:55;;;;;;;10.95;7.45;;;6.60;99.90;;;;;;5042107;28;20045;-57
2024/02/27 02:35:20;;;;;;;13.85;7.43;;;6.60;99.90;;;;;;5043536;28;20134;-57
2024/02/27 02:37:48;;;;;;;14.20;7.25;;;6.60;99.90;;;;;;5040024;28;20190;-58
2024/02/27 02:40:15;;;;;;;14.70;7.07;;;6.60;99.90;;;;;;5040357;28;20059;-57
2024/02/27 02:42:42;;;;;;;10.75;7.40;;;6.60;99.90;;;;;;5043096;28;20082;-57
2024/02/27 02:45:08;;;;;;;11.65;7.20;;;6.60;99.90;;;;;;5044122;28;20466;-57
2024/02/27 02:47:33;;;;;;;11.45;6.80;;;6.60;99.90;;;;;;5042507;28;20112;-57
2024/02/27 02:49:59;;;;;;;15.70;7.68;;;6.60;99.90;;;;;;5043865;28;20108;-57
2024/02/27 02:52:25;;;;;;;12.27;7.28;;;6.60;99.90;;;;;;5043637;28;20033;-56
2024/02/27 02:54:50;;;;;;;9.55;6.35;;;6.70;99.90;;;;;;5045460;28;20033;-54
2024/02/27 02:57:16;;;;;;;10.55;6.85;;;6.60;99.90;;;;;;5067277;22;20051;-59
2024/02/27 02:59:43;;;;;;;12.95;7.43;;;6.60;99.90;;;;;;5059935;28;20020;-60
2024/02/27 03:02:08;;;;;;;11.45;7.13;;;6.60;99.90;;;;;;5059126;28;20032;-60
2024/02/27 03:04:34;;;;;;;11.95;7.20;;;6.60;99.90;;;;;;5056818;28;20040;-60
2024/02/27 03:06:59;;;;;;;13.98;7.25;;;6.50;99.90;;;;;;5057422;28;20043;-60
2024/02/27 03:09:25;;;;;;;19.27;7.93;;;6.50;99.90;;;;;;5057929;28;20044;-60
2024/02/27 03:11:51;;;;;;;9.25;6.07;;;6.50;99.90;;;;;;5059080;28;20037;-59
2024/02/27 03:14:17;;;;;;;13.10;7.15;;;6.50;99.90;;;;;;5057998;28;20043;-59
2024/02/27 03:16:44;;;;;;;11.82;7.25;;;6.50;99.90;;;;;;5057805;28;20040;-59
2024/02/27 03:19:10;;;;;;;10.88;6.88;;;6.50;99.90;;;;;;5057063;28;20029;-57
2024/02/27 03:21:37;;;;;;;8.55;5.90;;;6.40;99.90;;;;;;5057117;28;20414;-59
2024/02/27 03:24:03;;;;;;;14.80;6.80;;;6.50;99.90;;;;;;5058730;28;20029;-60
2024/02/27 03:26:28;;;;;;;9.60;6.07;;;6.50;99.90;;;;;;5057561;28;20043;-59
2024/02/27 03:28:54;;;;;;;14.75;6.20;;;6.50;99.90;;;;;;5057381;28;20047;-59
2024/02/27 03:31:19;;;;;;;11.40;6.85;;;6.50;99.90;;;;;;5044195;28;20048;-60
2024/02/27 03:33:45;;;;;;;12.75;6.40;;;6.50;99.90;;;;;;5057360;28;20160;-60
2024/02/27 03:36:10;;;;;;;11.80;6.55;;;6.50;99.90;;;;;;5057238;28;20120;-60
2024/02/27 03:38:36;;;;;;;10.43;6.60;;;6.50;99.90;;;;;;5056209;28;20116;-60
2024/02/27 03:41:02;;;;;;;14.07;6.38;;;6.50;99.90;;;;;;5057196;28;20559;-60
2024/02/27 03:43:28;;;;;;;12.73;7.38;;;6.40;99.90;;;;;;5058563;28;20040;-59
2024/02/27 03:45:54;;;;;;;9.65;5.90;;;6.40;99.90;;;;;;5059371;28;20048;-59
2024/02/27 03:48:19;;;;;;;10.20;6.05;;;6.40;99.90;;;;;;5056131;28;20110;-59
2024/02/27 03:50:45;;;;;;;8.50;5.65;;;6.30;99.90;;;;;;5054562;28;20036;-60
2024/02/27 03:53:10;;;;;;;7.72;4.88;;;6.20;99.90;;;;;;5056925;28;20035;-60
2024/02/27 03:55:37;;;;;;;11.55;6.18;;;6.20;99.90;;;;;;5057992;28;20024;-60
2024/02/27 03:58:03;;;;;;;9.82;6.70;;;6.10;99.90;;;;;;5057806;28;20101;-60
2024/02/27 04:00:28;;;;;;;10.40;6.07;;;6.10;99.90;;;;;;5056532;28;20035;-60
2024/02/27 04:02:55;;;;;;;9.48;5.20;;;6.10;99.90;;;;;;5057635;28;20020;-60
2024/02/27 04:05:20;;;;;;;10.77;6.10;;;6.00;99.90;;;;;;5054931;28;20109;-59
2024/02/27 04:07:46;;;;;;;9.05;4.95;;;6.00;99.90;;;;;;5057758;28;20123;-60
2024/02/27 04:10:12;;;;;;;8.80;4.93;;;5.90;99.90;;;;;;5056280;28;20025;-59
2024/02/27 04:12:37;;;;;;;12.23;5.45;;;5.80;99.90;;;;;;5053916;28;20028;-60
2024/02/27 04:15:03;;;;;;;8.75;5.10;;;5.80;99.90;;;;;;5054284;28;20025;-59
2024/02/27 04:17:28;;;;;;;9.40;5.13;;;5.70;99.90;;;;;;5056717;28;20042;-60
2024/02/27 04:19:54;;;;;;;6.85;4.45;;;5.70;99.90;;;;;;5055760;28;21141;-60
2024/02/27 04:22:22;;;;;;;8.55;5.40;;;5.60;99.90;;;;;;5053856;28;20483;-58
2024/02/27 04:24:47;;;;;;;7.88;4.85;;;5.70;99.90;;;;;;5059982;28;20033;-60
2024/02/27 04:27:13;;;;;;;27.50;8.07;;;5.60;99.90;;;;;;5057297;28;20486;-58
2024/02/27 04:29:41;;;;;;;8.90;4.60;;;5.60;99.90;;;;;;5057961;28;20036;-60
2024/02/27 04:32:07;;;;;;;8.25;4.78;;;5.50;99.90;;;;;;5058880;28;20137;-60
2024/02/27 04:34:33;;;;;;;7.97;4.63;;;5.50;99.90;;;;;;5057692;28;20078;-60
2024/02/27 04:36:59;;;;;;;8.20;5.07;;;5.40;99.90;;;;;;5054922;28;20032;-60
2024/02/27 04:39:25;;;;;;;9.23;5.43;;;5.40;99.90;;;;;;5054231;28;20398;-60
2024/02/27 04:41:50;;;;;;;10.32;5.95;;;5.50;99.90;;;;;;5057506;28;20035;-59
2024/02/27 04:44:19;;;;;;;8.88;5.25;;;5.50;99.90;;;;;;5058552;28;20025;-59
2024/02/27 04:46:44;;;;;;;10.05;5.80;;;5.50;99.90;;;;;;5056948;28;20423;-59
2024/02/27 04:49:10;;;;;;;10.57;6.55;;;5.50;99.90;;;;;;5055270;28;20032;-59
2024/02/27 04:51:35;;;;;;;10.73;6.00;;;5.50;99.90;;;;;;5057671;28;20045;-59
2024/02/27 04:54:01;;;;;;;9.75;6.38;;;5.50;99.90;;;;;;5058280;28;20386;-56
2024/02/27 04:56:27;;;;;;;12.95;7.22;;;5.50;99.90;;;;;;5057462;28;20044;-59
2024/02/27 04:58:52;;;;;;;14.13;6.90;;;5.50;99.90;;;;;;5055898;28;20110;-60
2024/02/27 05:01:18;;;;;;;12.10;7.70;;;5.50;99.90;;;;;;5055996;28;20028;-59
2024/02/27 05:03:44;;;;;;;12.52;7.47;;;5.50;99.90;;;;;;5056864;28;20024;-59
2024/02/27 05:06:09;;;;;;;14.88;9.23;;;5.40;99.90;;;;;;5059883;28;20105;-60
2024/02/27 05:08:35;;;;;;;14.40;9.13;;;5.40;99.90;;;;;;5056327;28;20036;-60
2024/02/27 05:11:00;;;;;;;15.65;9.80;;;5.40;99.90;;;;;;5058663;28;20606;-60
2024/02/27 05:13:26;;;;;;;16.92;9.48;;;5.40;99.90;;;;;;5055236;28;20036;-59
2024/02/27 05:15:52;;;;;;;15.23;9.75;;;5.30;99.90;;;;;;5055571;28;20032;-59
2024/02/27 05:18:18;;;;;;;15.93;10.05;;;5.30;99.90;;;;;;5057986;28;20039;-60
2024/02/27 05:20:43;;;;;;;19.23;9.80;;;5.30;99.90;;;;;;5056941;28;20363;-60
2024/02/27 05:23:09;;;;;;;18.65;9.85;;;5.30;99.90;;;;;;5056062;28;20043;-60
2024/02/27 05:25:34;;;;;;;15.73;9.93;;;5.20;99.90;;;;;;5054607;28;20502;-60
2024/02/27 05:28:00;;;;;;;16.92;10.55;;;5.20;99.90;;;;;;5056489;28;20024;-60
2024/02/27 05:30:25;;;;;;;18.20;10.75;;;5.20;99.90;;;;;;5057711;28;20032;-59
2024/02/27 05:32:51;;;;;;;17.55;10.43;;;5.20;99.90;;;;;;5037309;28;20041;-60
2024/02/27 05:35:16;;;;;;;18.10;10.63;;;5.20;99.90;;;;;;5057075;28;20024;-60
2024/02/27 05:37:42;;;;;;;15.77;11.13;;;5.10;99.90;;;;;;5058917;28;20106;-60
2024/02/27 05:40:10;;;;;;;18.10;11.00;;;5.10;99.90;;;;;;5073369;28;20039;-60
2024/02/27 05:42:36;;;;;;;17.48;10.88;;;5.10;99.90;;;;;;5056369;28;20024;-59
2024/02/27 05:45:02;;;;;;;19.83;11.65;;;5.10;99.90;;;;;;5055653;28;20048;-60
2024/02/27 05:47:27;;;;;;;22.58;11.80;;;5.00;99.90;;;;;;5054942;28;20616;-59
2024/02/27 05:49:53;;;;;;;22.75;12.30;;;5.00;99.90;;;;;;5055671;28;20056;-59
2024/02/27 05:52:19;;;;;;;19.90;11.90;;;5.00;99.90;;;;;;5055737;28;20059;-60
2024/02/27 05:54:44;;;;;;;19.75;11.48;;;5.00;99.90;;;;;;5054362;28;20021;-58
2024/02/27 05:57:11;;;;;;;20.05;12.38;;;5.00;99.90;;;;;;5057016;28;20394;-60
2024/02/27 05:59:37;;;;;;;22.02;12.20;;;4.90;99.90;;;;;;5061306;28;20040;-58
2024/02/27 06:02:03;;;;;;;20.20;12.10;;;4.90;99.90;;;;;;5060136;28;20371;-60
2024/02/27 06:04:29;;;;;;;21.13;12.77;;;4.90;99.90;;;;;;5059350;28;20051;-59
2024/02/27 06:06:54;;;;;;;23.75;12.70;;;4.80;99.90;;;;;;5059173;28;20021;-59
2024/02/27 06:09:20;;;;;;;26.40;13.85;;;4.80;99.90;;;;;;5058548;28;20041;-58
2024/02/27 06:11:45;;;;;;;24.33;13.00;;;4.80;99.90;;;;;;5058736;28;20048;-59
2024/02/27 06:14:12;;;;;;;23.02;13.98;;;4.80;99.90;;;;;;5060064;28;20703;-60
2024/02/27 06:16:39;;;;;;;28.48;14.52;;;4.80;99.90;;;;;;5059706;28;20052;-58
2024/02/27 06:19:04;;;;;;;24.60;15.07;;;4.80;99.90;;;;;;5058764;28;20447;-59
2024/02/27 06:24:14;;;;;;;24.90;14.05;;;4.80;99.90;;;;;;5057531;28;20468;-58
2024/02/27 06:26:39;;;;;;;26.33;14.45;;;4.80;99.90;;;;;;5059013;28;20029;-60
2024/02/27 06:29:05;;;;;;;23.88;13.95;;;4.80;99.90;;;;;;5059760;28;20037;-60
2024/02/27 06:31:31;;;;;;;28.27;15.98;;;4.80;99.90;;;;;;5056058;28;20037;-59
2024/02/27 06:33:56;;;;;;;23.80;14.95;;;4.80;99.90;;;;;;5040175;28;20084;-59
2024/02/27 06:36:23;;;;;;;28.02;15.43;;;4.90;99.90;;;;;;5060316;28;20404;-58
2024/02/27 06:38:48;;;;;;;26.25;15.02;;;4.90;99.90;;;;;;5057768;28;20025;-58
2024/02/27 06:41:14;;;;;;;25.05;15.38;;;4.90;99.90;;;;;;5059670;28;20035;-59
2024/02/27 06:43:39;;;;;;;29.48;16.67;;;5.00;99.90;;;;;;5058734;28;20115;-59
2024/02/27 06:46:05;;;;;;;29.15;15.82;;;5.00;99.90;;;;;;5058789;28;20048;-58
2024/02/27 06:48:32;;;;;;;27.13;14.77;;;5.10;99.90;;;;;;5056771;28;20025;-60
2024/02/27 06:50:58;;;;;;;29.73;14.40;;;5.10;99.90;;;;;;5058068;28;20025;-59
2024/02/27 06:53:23;;;;;;;28.02;14.43;;;5.10;99.90;;;;;;5058358;28;20028;-59
2024/02/27 06:55:49;;;;;;;27.90;15.07;;;5.10;99.90;;;;;;5061020;28;20059;-60
2024/02/27 06:58:16;;;;;;;31.50;16.40;;;5.20;99.90;;;;;;5059764;28;20033;-60
2024/02/27 07:00:42;;;;;;;26.23;14.20;;;5.30;99.90;;;;;;5059265;28;20021;-60
2024/02/27 07:03:07;;;;;;;26.13;14.40;;;5.30;99.90;;;;;;5059776;28;20797;-59
2024/02/27 07:05:34;;;;;;;24.13;13.75;;;5.30;99.90;;;;;;5060719;28;20032;-60
2024/02/27 07:08:00;;;;;;;28.60;15.52;;;5.40;99.90;;;;;;5060090;28;20082;-60
2024/02/27 07:10:25;;;;;;;28.00;13.90;;;5.40;99.90;;;;;;5059770;28;20037;-60
2024/02/27 07:12:51;;;;;;;24.73;14.65;;;5.50;99.90;;;;;;5058593;28;20039;-57
2024/02/27 07:15:16;;;;;;;26.73;13.38;;;5.60;99.90;;;;;;5060336;28;20120;-58
2024/02/27 07:17:42;;;;;;;24.02;14.35;;;5.60;99.90;;;;;;5058812;28;20025;-59
2024/02/27 07:20:09;;;;;;;26.83;14.32;;;5.70;99.90;;;;;;5058968;28;20045;-60
2024/02/27 07:22:35;;;;;;;24.17;13.43;;;5.70;99.90;;;;;;5058837;28;20072;-60
2024/02/27 07:25:00;;;;;;;24.35;14.48;;;5.80;99.90;;;;;;5058567;28;20055;-60
2024/02/27 07:27:26;;;;;;;25.05;14.60;;;5.90;99.90;;;;;;5058122;28;20021;-59
2024/02/27 07:29:52;;;;;;;26.65;14.80;;;5.90;99.90;;;;;;5058061;28;20391;-59
2024/02/27 07:32:17;;;;;;;24.48;14.00;;;6.00;99.90;;;;;;5057760;28;20389;-59
2024/02/27 07:34:43;;;;;;;22.75;13.80;;;6.10;99.90;;;;;;5039136;28;20093;-60
2024/02/27 07:37:13;;;;;;;28.13;14.48;;;6.10;99.90;;;;;;5059278;28;20104;-60
2024/02/27 07:39:39;;;;;;;25.42;14.82;;;6.10;99.90;;;;;;5058586;28;20454;-60
2024/02/27 07:42:05;;;;;;;30.27;15.35;;;6.20;99.90;;;;;;5057950;28;20035;-60
2024/02/27 07:44:31;;;;;;;23.13;13.60;;;6.20;99.90;;;;;;5057975;28;20028;-60
2024/02/27 07:46:56;;;;;;;26.95;14.57;;;6.20;99.90;;;;;;5059147;28;20025;-57
2024/02/27 07:49:22;;;;;;;23.75;13.18;;;6.30;99.90;;;;;;5057823;28;20021;-59
2024/02/27 07:51:48;;;;;;;24.65;13.48;;;6.40;99.90;;;;;;5058856;28;20037;-60
2024/02/27 07:54:17;;;;;;;25.58;13.82;;;6.50;99.90;;;;;;5057531;28;20029;-60
2024/02/27 07:56:43;;;;;;;24.88;13.88;;;6.60;99.90;;;;;;5057831;28;20031;-60
2024/02/27 07:59:10;;;;;;;27.17;12.73;;;6.70;99.90;;;;;;5058728;28;20104;-60
2024/02/27 08:01:35;;;;;;;23.60;14.40;;;6.80;99.90;;;;;;5057004;28;20473;-59
2024/02/27 08:04:01;;;;;;;30.13;14.98;;;7.00;99.90;;;;;;5057280;28;20123;-60
2024/02/27 08:06:27;;;;;;;24.33;14.40;;;7.00;99.90;;;;;;5057578;28;20053;-60
2024/02/27 08:08:54;;;;;;;26.05;14.68;;;7.10;99.90;;;;;;5058253;28;20032;-58
2024/02/27 08:11:21;;;;;;;23.92;13.20;;;7.30;99.90;;;;;;5056827;28;20144;-59
2024/02/27 08:13:47;;;;;;;25.38;14.57;;;7.40;99.90;;;;;;5058536;28;20066;-59
2024/02/27 08:16:13;;;;;;;23.63;13.98;;;7.40;99.90;;;;;;5058419;28;20520;-60
2024/02/27 08:18:38;;;;;;;24.50;14.38;;;7.40;99.90;;;;;;5058076;28;20037;-60
2024/02/27 08:21:04;;;;;;;24.98;14.25;;;7.60;99.90;;;;;;5056978;28;20042;-60
2024/02/27 08:23:30;;;;;;;25.98;14.13;;;7.70;99.90;;;;;;5057063;28;20028;-60
2024/02/27 08:25:56;;;;;;;21.77;13.30;;;7.80;99.90;;;;;;5056578;28;20032;-59
2024/02/27 08:28:22;;;;;;;24.73;14.15;;;7.90;99.90;;;;;;5056781;28;20021;-60
2024/02/27 08:30:48;;;;;;;25.00;14.30;;;7.80;99.90;;;;;;5059477;28;20075;-59
2024/02/27 08:33:14;;;;;;;27.30;16.35;;;7.70;99.90;;;;;;5057541;28;20036;-60
2024/02/27 08:35:40;;;;;;;23.65;13.68;;;7.90;99.90;;;;;;5038393;28;20033;-60
2024/02/27 08:38:05;;;;;;;27.25;15.05;;;8.00;99.90;;;;;;5059438;28;20434;-60
2024/02/27 08:40:32;;;;;;;24.10;13.35;;;8.20;99.90;;;;;;5058657;28;21192;-60
2024/02/27 08:42:58;;;;;;;20.50;12.82;;;8.20;99.90;;;;;;5057916;28;20043;-60
2024/02/27 08:45:24;;;;;;;23.63;14.00;;;8.30;99.90;;;;;;5057377;28;20025;-60
2024/02/27 08:47:50;;;;;;;25.80;13.48;;;8.40;99.90;;;;;;5056771;28;20497;-60
2024/02/27 08:50:16;;;;;;;23.98;13.57;;;8.60;99.90;;;;;;5058750;28;20028;-60
2024/02/27 08:52:42;;;;;;;22.77;13.07;;;8.40;99.90;;;;;;5058156;28;20036;-60
2024/02/27 08:55:08;;;;;;;29.77;14.70;;;8.50;99.90;;;;;;5059518;28;20032;-57
2024/02/27 08:57:34;;;;;;;29.38;13.68;;;8.70;99.90;;;;;;5063341;23;20571;-60
2024/02/27 09:00:00;;;;;;;25.30;14.02;;;8.70;99.90;;;;;;5056709;28;20485;-60
2024/02/27 09:02:26;;;;;;;24.45;14.00;;;8.70;99.90;;;;;;5058362;28;20501;-60
2024/02/27 09:04:51;;;;;;;24.20;13.90;;;8.70;99.90;;;;;;5057592;28;20033;-59
2024/02/27 09:07:17;;;;;;;23.58;13.73;;;8.70;99.90;;;;;;5057036;28;20044;-60
2024/02/27 09:09:43;;;;;;;25.80;13.95;;;8.60;99.90;;;;;;5057256;28;20071;-60
2024/02/27 09:12:09;;;;;;;27.60;14.90;;;8.50;99.90;;;;;;5056711;28;20044;-58
2024/02/27 09:14:39;;;;;;;22.08;13.38;;;8.50;99.90;;;;;;5057566;28;20443;-59
2024/02/27 09:17:04;;;;;;;27.23;13.88;;;8.70;99.90;;;;;;5040964;28;20024;-59
2024/02/27 09:19:30;;;;;;;25.60;13.85;;;8.70;99.90;;;;;;5056143;28;20035;-59
2024/02/27 09:21:56;;;;;;;24.17;14.63;;;8.80;99.90;;;;;;5056614;28;20054;-58
2024/02/27 09:24:22;;;;;;;27.23;14.05;;;8.80;99.90;;;;;;5057259;28;20100;-60
2024/02/27 09:26:48;;;;;;;25.80;14.23;;;9.10;99.90;;;;;;5057505;28;20582;-60
2024/02/27 09:29:13;;;;;;;28.63;14.57;;;9.10;99.90;;;;;;5058598;28;20037;-59
2024/02/27 09:31:39;;;;;;;22.25;12.77;;;9.30;99.90;;;;;;5057383;28;20041;-57
2024/02/27 09:34:09;;;;;;;25.13;14.00;;;9.30;99.90;;;;;;5059867;28;20048;-57
2024/02/27 09:36:34;;;;;;;23.85;13.20;;;9.20;99.90;;;;;;5041111;28;20383;-59
2024/02/27 09:39:00;;;;;;;23.88;13.02;;;9.30;99.90;;;;;;5061063;28;20029;-59
2024/02/27 09:41:50;;;;;;;26.63;13.32;;;9.40;99.90;;;;;;5061966;28;20504;-60
2024/02/27 09:44:17;;;;;;;21.33;12.25;;;9.60;99.90;;;;;;5059709;28;20456;-60
2024/02/27 09:46:43;;;;;;;22.65;12.93;;;9.80;99.90;;;;;;5059371;28;20089;-59
2024/02/27 09:49:11;;;;;;;22.77;13.05;;;9.60;99.90;;;;;;5061576;28;20083;-59
2024/02/27 09:51:38;;;;;;;24.70;13.82;;;9.90;99.90;;;;;;5060643;28;20036;-59
2024/02/27 09:54:05;;;;;;;23.35;11.88;;;10.00;99.90;;;;;;5041604;28;20031;-59
2024/02/27 09:56:32;;;;;;;20.70;11.95;;;10.40;99.90;;;;;;5061271;28;20499;-60
2024/02/27 09:58:59;;;;;;;22.67;12.05;;;10.50;99.90;;;;;;5060472;28;20100;-57
2024/02/27 10:01:28;;;;;;;19.13;12.13;;;10.50;99.90;;;;;;5062860;28;20054;-59
2024/02/27 10:03:55;;;;;;;20.55;12.52;;;10.70;99.90;;;;;;5060970;28;20063;-61
2024/02/27 10:06:22;;;;;;;20.88;12.35;;;11.30;99.90;;;;;;5059026;28;20028;-60
2024/02/27 10:08:56;;;;;;;19.85;12.35;;;11.80;99.90;;;;;;5059802;28;20065;-61
2024/02/27 10:11:22;;;;;;;21.02;12.43;;;12.20;99.90;;;;;;5058958;28;20029;-60
2024/02/27 10:13:48;;;;;;;19.48;13.15;;;12.40;99.90;;;;;;5059344;28;20402;-61
2024/02/27 10:16:14;;;;;;;18.00;11.10;;;12.40;99.90;;;;;;5059698;28;20021;-61
2024/02/27 10:18:40;;;;;;;17.48;12.23;;;12.60;99.90;;;;;;5058945;28;20032;-60
2024/02/27 10:21:05;;;;;;;18.35;10.68;;;12.60;99.90;;;;;;5061198;28;20033;-61
2024/02/27 10:23:31;;;;;;;18.70;12.10;;;12.20;99.90;;;;;;5061004;28;20036;-60
2024/02/27 10:26:08;;;;;;;20.65;10.75;;;11.80;99.90;;;;;;5059099;28;20036;-60
2024/02/27 10:28:35;;;;;;;24.55;11.43;;;11.60;99.90;;;;;;5061312;28;20036;-59
2024/02/27 10:31:10;;;;;;;20.85;11.30;;;11.50;99.90;;;;;;5059270;28;20531;-60
2024/02/27 10:33:39;;;;;;;17.40;10.95;;;11.40;99.90;;;;;;5059966;28;20025;-59
2024/02/27 10:36:06;;;;;;;22.20;10.73;;;11.20;99.90;;;;;;5041100;28;20044;-59
2024/02/27 10:38:32;;;;;;;16.95;10.50;;;10.90;99.90;;;;;;5059519;28;20021;-60
2024/02/27 10:40:59;;;;;;;18.48;11.35;;;10.80;99.90;;;;;;5058922;28;20378;-60
2024/02/27 10:43:25;;;;;;;20.40;10.85;;;10.60;99.90;;;;;;5057592;28;20020;-60
2024/02/27 10:45:50;;;;;;;17.30;10.82;;;10.60;99.90;;;;;;5057882;28;20035;-59
2024/02/27 10:48:19;;;;;;;19.23;10.77;;;10.50;99.90;;;;;;5058793;28;20028;-59
2024/02/27 10:50:46;;;;;;;19.67;10.10;;;10.30;99.90;;;;;;5060175;28;20104;-60
2024/02/27 10:53:13;;;;;;;18.73;9.88;;;10.40;99.90;;;;;;5060430;28;20520;-60
2024/02/27 10:55:39;;;;;;;18.88;11.23;;;10.20;99.90;;;;;;5059188;28;20024;-60
2024/02/27 10:58:04;;;;;;;14.20;9.32;;;10.30;99.90;;;;;;5060664;28;20028;-60
2024/02/27 11:00:33;;;;;;;20.17;10.85;;;10.40;99.90;;;;;;5059879;28;20025;-60
2024/02/27 11:03:01;;;;;;;17.27;10.63;;;10.30;99.90;;;;;;5058623;28;20055;-61
2024/02/27 11:05:29;;;;;;;18.88;9.90;;;10.20;99.90;;;;;;5057447;28;20044;-60
2024/02/27 11:07:55;;;;;;;19.67;9.80;;;10.10;99.90;;;;;;5059196;28;20029;-59
2024/02/27 11:10:25;;;;;;;19.50;10.18;;;10.10;99.90;;;;;;5056363;28;20032;-60
2024/02/27 11:12:53;;;;;;;21.00;10.38;;;10.00;99.90;;;;;;5056961;28;20074;-59
2024/02/27 11:15:20;;;;;;;16.35;9.75;;;10.20;99.90;;;;;;5059423;28;20024;-59
2024/02/27 11:17:52;;;;;;;16.25;9.93;;;10.20;99.90;;;;;;5058366;28;20033;-60
2024/02/27 11:20:18;;;;;;;19.88;10.40;;;10.20;99.90;;;;;;5060021;28;20044;-60
2024/02/27 11:22:45;;;;;;;20.27;8.90;;;10.10;99.90;;;;;;5058159;28;20458;-60
2024/02/27 11:25:11;;;;;;;13.55;8.55;;;9.90;99.90;;;;;;5060008;28;20028;-60
2024/02/27 11:27:38;;;;;;;15.00;8.88;;;9.90;99.90;;;;;;5059896;28;20033;-60
2024/02/27 11:30:07;;;;;;;17.38;9.45;;;10.00;99.90;;;;;;5058081;28;20024;-60
2024/02/27 11:32:34;;;;;;;15.13;9.18;;;10.00;99.90;;;;;;5056893;28;20454;-60
2024/02/27 11:35:01;;;;;;;15.80;9.38;;;10.00;99.90;;;;;;5059295;28;20027;-59
2024/02/27 11:37:27;;;;;;;16.13;8.65;;;10.00;99.90;;;;;;5039931;28;20541;-60
2024/02/27 11:39:53;;;;;;;19.48;9.57;;;10.10;99.90;;;;;;5058256;28;20032;-60
2024/02/27 11:42:21;;;;;;;16.88;9.70;;;10.30;99.90;;;;;;5058531;28;20131;-60
2024/02/27 11:45:13;;;;;;;17.92;11.52;;;10.50;99.90;;;;;;5057509;28;20052;-60
2024/02/27 11:47:44;;;;;;;16.27;9.68;;;10.90;99.90;;;;;;5054599;28;20234;-58
2024/02/27 11:50:11;;;;;;;20.45;9.93;;;11.30;99.90;;;;;;5056525;28;20032;-60
2024/02/27 11:52:36;;;;;;;18.70;10.77;;;11.60;99.90;;;;;;5058744;28;20052;-59
2024/02/27 11:55:09;;;;;;;18.52;11.27;;;11.80;99.90;;;;;;5058366;28;20065;-59
2024/02/27 11:57:36;;;;;;;13.77;9.15;;;11.90;99.90;;;;;;5058863;28;20545;-59
2024/02/27 12:00:09;;;;;;;17.55;10.32;;;11.60;99.90;;;;;;5058755;28;20104;-59
2024/02/27 12:02:36;;;;;;;18.42;10.27;;;11.20;99.90;;;;;;5057046;28;20024;-59
2024/02/27 12:05:06;;;;;;;17.15;9.65;;;10.90;99.90;;;;;;5057646;28;20036;-59
2024/02/27 12:07:33;;;;;;;19.77;10.43;;;10.90;99.90;;;;;;5039901;28;20032;-59
2024/02/27 12:10:12;;;;;;;14.68;9.45;;;10.80;99.90;;;;;;5057560;28;20105;-59
2024/02/27 12:12:39;;;;;;;17.13;10.50;;;10.70;99.90;;;;;;5057039;28;20382;-60
2024/02/27 12:15:06;;;;;;;16.95;9.93;;;10.60;99.90;;;;;;5057407;28;20035;-60
2024/02/27 12:17:33;;;;;;;15.82;8.95;;;10.70;99.90;;;;;;5057394;28;20074;-60
2024/02/27 12:20:00;;;;;;;18.27;9.93;;;10.80;99.90;;;;;;5057323;28;20022;-60
2024/02/27 12:22:27;;;;;;;15.30;8.88;;;11.00;99.90;;;;;;5057876;28;20079;-61
2024/02/27 12:24:56;;;;;;;20.13;9.85;;;11.20;99.90;;;;;;5057989;28;20028;-59
2024/02/27 12:27:23;;;;;;;14.75;9.20;;;11.10;99.90;;;;;;5040873;28;20036;-60
2024/02/27 12:29:49;;;;;;;14.00;8.75;;;11.00;99.90;;;;;;5053620;28;20039;-62
2024/02/27 12:32:15;;;;;;;19.33;9.48;;;11.10;99.90;;;;;;5058104;28;21284;-60
2024/02/27 12:34:40;;;;;;;16.42;10.13;;;11.20;99.90;;;;;;5056000;28;20048;-61
2024/02/27 12:37:06;;;;;;;17.05;9.00;;;11.40;99.90;;;;;;5036001;28;20045;-58
2024/02/27 12:39:32;;;;;;;14.90;8.65;;;11.60;99.90;;;;;;5056345;28;20034;-59